New York, New York
Current Conditions -  °F | °C
As of 12:35 AM on Thursday 18 Dec 2014 (Local Time) from KJRB Reporting Station
Overcast Overcast  
Wind Chill:   Ceiling: 4400
Heat Index:   Visibility: 10mi
Dew Point: -2°   Wind: 7mph
Humidity: 57%   Direction: 270°W
Pressure: 29.89"   Gusts: NA
Location:  40.71°N, 74.01°W
Report Text: KJRB 180535Z AUTO 27006KT 10SM OVC044 06/M02 A2989 RMK AO1
Loading
Personal Weather Stations






























Interactive Weather Map New forecast layout! Learn more

10-Day Weather Forecast

Advertisements
Track Severe Weather on mobile